Terminal Aerodrome Forecast
Issued by NWS

Home | Current Version | Previous Version | Text Only | Print | Product List | Glossary On
Versions: 1 2 3 4 5 6 7 8 9 10 11 12 13 14 15 16 17 18 19
000
FTUS43 KGRB 292300
TAFMTW
TAF
KMTW 292320Z 3000/3024 17011G20KT P6SM VCSH SCT008 SCT025 BKN100
     FM300400 17009KT 5SM BR VCSH SCT025 OVC080
     FM300700 18008KT 4SM -SHRA BR SCT006 OVC015
      TEMPO 3008/3012 1 1/2SM TSRA BR BKN006CB
     FM301200 18005KT 3SM -SHRA BR OVC005
     FM301400 23009KT 5SM -SHRA BR OVC011=

USA.gov is the U.S. government's official web portal to all federal, state and local government web resources and services.